Time;durP1;ratioP1;P1;durP2;ratioP2;P2;SDS_P1;SDS_P2;PMS_P1;PMS_P2;Temp;Humidity;BMP_temperature;BMP_pressure;BME280_temperature;BME280_humidity;BME280_pressure;Samples;Min_cycle;Max_cycle;Signal;HPM_P1;HPM_P2
2022/01/31 00:01:56;;;;;;;9.87;2.83;;;;;;;2.47;70.57;94953.19;5034165;28;20222;-68
2022/01/31 00:04:23;;;;;;;10.00;2.30;;;;;;;2.56;70.27;94953.13;5033341;28;20662;-69
2022/01/31 00:06:49;;;;;;;17.50;2.83;;;;;;;2.41;70.28;94948.19;5033479;28;20199;-69
2022/01/31 00:09:17;;;;;;;11.97;2.90;;;;;;;2.45;69.98;94947.34;5033170;28;20203;-71
2022/01/31 00:11:54;;;;;;;13.13;3.27;;;;;;;2.36;70.78;94940.69;5032805;28;20238;-70
2022/01/31 00:14:32;;;;;;;13.27;3.43;;;;;;;2.28;71.26;94942.38;5032946;28;20606;-70
2022/01/31 00:17:00;;;;;;;8.00;3.23;;;;;;;2.31;70.35;94951.56;5032439;28;20198;-71
2022/01/31 00:19:31;;;;;;;7.60;2.97;;;;;;;2.30;69.79;94945.72;5033497;28;20256;-70
2022/01/31 00:21:58;;;;;;;28.47;3.07;;;;;;;2.25;70.22;94934.88;5033799;28;20637;-71
2022/01/31 00:24:26;;;;;;;13.50;2.80;;;;;;;2.37;69.07;94946.53;5033721;28;20260;-71
2022/01/31 00:26:52;;;;;;;22.03;3.33;;;;;;;2.45;68.91;94959.88;5033208;28;20672;-69
2022/01/31 00:29:19;;;;;;;10.00;3.30;;;;;;;2.44;69.86;94955.72;5033358;28;20230;-70
2022/01/31 00:31:46;;;;;;;7.43;2.67;;;;;;;2.40;69.70;94946.53;5032783;28;20204;-71
2022/01/31 00:34:17;;;;;;;15.97;3.37;;;;;;;2.36;70.19;94950.72;5032298;28;20227;-69
2022/01/31 00:36:44;;;;;;;21.43;2.90;;;;;;;2.42;70.11;94961.56;5032959;28;20232;-72
2022/01/31 00:39:11;;;;;;;8.20;2.75;;;;;;;2.44;70.30;94958.22;5032939;28;20257;-69
2022/01/31 00:41:38;;;;;;;17.57;2.70;;;;;;;2.43;70.13;94951.53;5032749;28;20315;-71
2022/01/31 00:44:17;;;;;;;6.33;3.07;;;;;;;2.44;70.13;94955.72;5032509;28;20284;-72
2022/01/31 00:47:05;;;;;;;11.93;2.87;;;;;;;2.55;69.35;94965.69;5032744;28;20290;-70
2022/01/31 00:49:49;;;;;;;10.15;3.42;;;;;;;2.61;69.00;94965.66;5033262;28;20205;-71
2022/01/31 00:52:16;;;;;;;17.90;4.30;;;;;;;2.71;68.82;94958.09;5031092;28;20650;-70
2022/01/31 00:54:43;;;;;;;9.23;2.70;;;;;;;2.68;68.59;94963.13;5029611;28;20677;-70
2022/01/31 00:57:09;;;;;;;2.60;2.40;;;;;;;2.82;67.96;94969.75;5032539;28;20235;-69
2022/01/31 00:59:36;;;;;;;12.87;2.50;;;;;;;2.72;67.76;94967.25;5032599;28;20234;-69
2022/01/31 01:02:03;;;;;;;20.00;3.00;;;;;;;2.69;68.50;94972.31;5032866;28;21413;-70
2022/01/31 01:04:30;;;;;;;8.97;2.33;;;;;;;2.66;68.52;94974.00;5032554;28;20214;-70
2022/01/31 01:06:58;;;;;;;6.33;2.23;;;;;;;2.73;69.01;94975.63;5032650;28;20227;-69
2022/01/31 01:09:25;;;;;;;7.87;2.00;;;;;;;2.71;68.95;94973.16;5030277;28;21012;-69
2022/01/31 01:11:51;;;;;;;20.50;3.23;;;;;;;2.77;68.12;94974.78;5032059;28;20344;-70
2022/01/31 01:14:19;;;;;;;11.80;2.20;;;;;;;2.82;67.03;94980.59;5026806;28;20266;-69
2022/01/31 01:16:47;;;;;;;8.93;3.00;;;;;;;2.81;68.07;94975.59;5030765;28;20297;-69
2022/01/31 01:19:14;;;;;;;8.13;2.70;;;;;;;2.71;67.19;94980.69;5031615;28;20235;-72
2022/01/31 01:21:40;;;;;;;11.50;2.07;;;;;;;2.64;66.87;94978.19;5031758;28;20262;-71
2022/01/31 01:24:08;;;;;;;11.03;2.63;;;;;;;2.80;67.70;94972.25;5032156;28;20387;-72
2022/01/31 01:26:35;;;;;;;10.27;2.03;;;;;;;2.87;66.01;94973.06;5031704;28;20725;-70
2022/01/31 01:29:02;;;;;;;11.10;2.47;;;;;;;2.96;65.46;94978.03;5032145;28;20269;-71
2022/01/31 01:31:29;;;;;;;9.07;2.33;;;;;;;2.94;65.44;94969.69;5032445;28;20690;-70
2022/01/31 01:33:55;;;;;;;8.43;2.57;;;;;;;2.96;65.83;94962.97;5031519;28;20215;-71
2022/01/31 01:36:22;;;;;;;11.53;3.10;;;;;;;2.88;65.39;94974.72;5029610;28;20207;-71
2022/01/31 01:38:49;;;;;;;4.83;2.53;;;;;;;2.98;64.77;94971.31;5030212;28;20616;-71
2022/01/31 01:41:17;;;;;;;12.30;2.17;;;;;;;2.93;63.83;94958.81;5028375;28;20281;-70
2022/01/31 01:43:44;;;;;;;11.57;2.80;;;;;;;2.98;64.62;94972.16;5028955;28;20246;-72
2022/01/31 01:46:11;;;;;;;12.43;3.70;;;;;;;2.94;64.46;94969.69;5028481;28;20316;-70
2022/01/31 01:48:38;;;;;;;9.13;2.70;;;;;;;2.95;65.42;94961.31;5028269;28;20210;-71
2022/01/31 01:51:05;;;;;;;10.87;2.57;;;;;;;2.95;65.10;94976.38;5027894;28;20692;-71
2022/01/31 01:53:32;;;;;;;18.27;2.73;;;;;;;2.88;66.15;94972.22;5029484;28;20292;-71
2022/01/31 01:55:59;;;;;;;11.60;2.83;;;;;;;3.07;64.88;94971.25;5030537;28;20238;-70
2022/01/31 01:58:29;;;;;;;7.23;2.10;;;;;;;2.93;65.02;94968.00;5032277;28;20203;-72
2022/01/31 02:01:01;;;;;;;6.73;2.23;;;;;;;2.98;64.81;94972.16;5031546;28;20616;-71
2022/01/31 02:03:29;;;;;;;6.10;2.40;;;;;;;2.92;64.54;94977.22;5031918;28;20595;-70
2022/01/31 02:05:56;;;;;;;8.60;2.47;;;;;;;2.71;64.65;94958.09;5032427;28;20280;-69
2022/01/31 02:08:25;;;;;;;15.43;2.97;;;;;;;2.80;64.42;94976.44;5031823;28;20294;-71
2022/01/31 02:10:52;;;;;;;8.23;2.60;;;;;;;2.78;65.17;94975.59;5031264;28;20238;-69
2022/01/31 02:13:19;;;;;;;9.63;2.00;;;;;;;2.93;63.96;94978.06;5031571;28;20308;-69
2022/01/31 02:15:51;;;;;;;7.33;2.80;;;;;;;2.96;63.16;94978.03;5031771;28;20392;-72
2022/01/31 02:18:19;;;;;;;23.87;2.37;;;;;;;2.94;64.42;94975.53;5031432;28;20448;-69
2022/01/31 02:20:47;;;;;;;4.27;2.30;;;;;;;2.98;63.72;94967.13;5031554;28;20333;-69
2022/01/31 02:23:17;;;;;;;3.87;2.80;;;;;;;2.99;62.89;94962.94;5032398;28;20234;-68
2022/01/31 02:25:55;;;;;;;9.73;2.10;;;;;;;2.94;62.71;94967.19;5031932;28;20219;-71
2022/01/31 02:28:23;;;;;;;5.97;1.77;;;;;;;3.02;63.15;94967.94;5030990;28;20199;-69
2022/01/31 02:30:50;;;;;;;3.97;1.70;;;;;;;2.99;63.32;94965.44;5031274;28;21119;-70
2022/01/31 02:33:18;;;;;;;17.63;2.20;;;;;;;3.05;63.00;94962.91;5031622;28;20231;-70
2022/01/31 02:35:47;;;;;;;8.50;1.93;;;;;;;2.90;63.01;94950.47;5031644;28;20225;-71
2022/01/31 02:38:13;;;;;;;6.73;2.23;;;;;;;2.76;63.62;94957.22;5032043;28;20223;-70
2022/01/31 02:40:40;;;;;;;2.00;1.70;;;;;;;2.80;63.29;94988.97;5030843;28;20234;-71
2022/01/31 02:43:07;;;;;;;5.53;1.90;;;;;;;2.75;64.42;94981.47;5030603;28;20230;-70
2022/01/31 02:45:34;;;;;;;11.53;2.50;;;;;;;2.70;64.24;94984.03;5031423;28;20862;-69
2022/01/31 02:48:01;;;;;;;9.03;2.07;;;;;;;2.76;63.70;94978.13;5031429;28;20763;-69
2022/01/31 02:50:28;;;;;;;14.60;2.03;;;;;;;2.84;63.06;94980.59;5031323;28;20653;-70
2022/01/31 02:53:12;;;;;;;6.20;1.97;;;;;;;2.77;62.85;94982.31;5031973;28;20203;-69
2022/01/31 02:55:40;;;;;;;7.40;1.97;;;;;;;2.81;63.27;94980.63;5031574;28;20788;-71
2022/01/31 02:58:07;;;;;;;5.70;2.00;;;;;;;2.79;63.12;94977.28;5030751;28;20249;-70
2022/01/31 03:00:34;;;;;;;6.57;2.60;;;;;;;2.73;63.89;94983.16;5032139;28;20238;-69
2022/01/31 03:03:01;;;;;;;6.30;2.03;;;;;;;2.83;63.45;94976.44;5033676;28;20679;-69
2022/01/31 03:05:28;;;;;;;11.67;2.13;;;;;;;2.66;63.93;94974.84;5034709;28;20281;-68
2022/01/31 03:07:57;;;;;;;5.37;2.10;;;;;;;2.69;64.32;94976.50;5033219;28;20230;-70
2022/01/31 03:10:24;;;;;;;4.70;2.30;;;;;;;2.72;62.89;94974.00;5031764;28;20235;-70
2022/01/31 03:12:51;;;;;;;9.17;1.90;;;;;;;2.76;62.47;94972.28;5033333;28;20234;-69
2022/01/31 03:15:17;;;;;;;6.17;1.97;;;;;;;2.84;62.45;94981.44;5033017;28;20255;-69
2022/01/31 03:17:47;;;;;;;7.83;2.00;;;;;;;2.84;62.44;94983.94;5033237;28;21491;-70
2022/01/31 03:20:15;;;;;;;5.20;2.97;;;;;;;2.76;62.92;94992.34;5032987;28;20866;-70
2022/01/31 03:22:42;;;;;;;11.13;2.63;;;;;;;2.70;63.42;94989.03;5032799;28;20239;-70
2022/01/31 03:25:10;;;;;;;21.17;2.53;;;;;;;2.77;63.20;94983.97;5033172;28;20349;-70
2022/01/31 03:27:38;;;;;;;13.70;1.83;;;;;;;2.73;63.63;94971.44;5033135;28;20371;-70
2022/01/31 03:30:07;;;;;;;7.27;2.10;;;;;;;2.66;63.58;94974.84;5032414;28;20231;-69
2022/01/31 03:32:33;;;;;;;10.67;2.27;;;;;;;2.52;64.40;94966.53;5033183;28;20291;-71
2022/01/31 03:35:01;;;;;;;8.37;2.10;;;;;;;2.45;64.47;94969.94;5032590;28;20658;-69
2022/01/31 03:37:28;;;;;;;5.80;2.10;;;;;;;2.39;63.98;94972.44;5033981;28;20203;-70
2022/01/31 03:39:55;;;;;;;7.33;1.70;;;;;;;2.39;64.73;94970.78;5032810;28;20955;-69
2022/01/31 03:42:23;;;;;;;4.00;2.23;;;;;;;2.38;64.48;94979.13;5034306;28;20324;-70
2022/01/31 03:44:50;;;;;;;10.30;1.83;;;;;;;2.38;65.21;94973.28;5034029;28;20235;-70
2022/01/31 03:47:20;;;;;;;9.60;1.93;;;;;;;2.45;64.73;94974.94;5034048;28;20306;-70
2022/01/31 03:49:47;;;;;;;8.03;2.07;;;;;;;2.48;63.86;94977.41;5033524;28;20207;-70
2022/01/31 03:52:14;;;;;;;5.97;2.10;;;;;;;2.46;64.23;94971.59;5034285;28;20226;-69
2022/01/31 03:54:41;;;;;;;3.60;1.70;;;;;;;2.52;64.03;94971.53;5034449;28;20234;-70
2022/01/31 03:57:07;;;;;;;4.53;2.03;;;;;;;2.47;63.97;94973.25;5034785;28;20284;-71
2022/01/31 03:59:36;;;;;;;10.10;2.17;;;;;;;2.50;64.13;94962.34;5034599;28;20230;-68
2022/01/31 04:02:06;;;;;;;5.30;1.90;;;;;;;2.60;62.97;94969.84;5033506;28;20277;-69
2022/01/31 04:04:33;;;;;;;5.67;1.90;;;;;;;2.49;63.34;94969.03;5034141;28;20195;-70
2022/01/31 04:07:00;;;;;;;4.37;2.20;;;;;;;2.53;63.62;94969.88;5033060;28;20257;-69
2022/01/31 04:09:27;;;;;;;7.00;2.37;;;;;;;2.61;64.37;94966.50;5033735;28;20308;-70
2022/01/31 04:11:54;;;;;;;8.73;1.80;;;;;;;2.68;63.16;94978.19;5032945;28;20710;-71
2022/01/31 04:14:25;;;;;;;8.40;2.40;;;;;;;2.60;63.64;94987.41;5034010;28;20689;-71
2022/01/31 04:16:54;;;;;;;8.23;2.13;;;;;;;2.54;63.50;94982.41;5033238;28;20238;-70
2022/01/31 04:19:21;;;;;;;10.37;2.53;;;;;;;2.44;64.09;94984.97;5033696;28;20203;-70
2022/01/31 04:21:47;;;;;;;5.97;2.50;;;;;;;2.59;64.00;94988.25;5033391;28;20235;-70
2022/01/31 04:24:21;;;;;;;7.53;2.30;;;;;;;2.61;63.29;94994.09;5033769;28;20298;-70
2022/01/31 04:26:56;;;;;;;5.27;2.67;;;;;;;2.49;63.85;95001.66;5033799;28;20250;-70
2022/01/31 04:29:24;;;;;;;9.37;2.37;;;;;;;2.61;63.64;94990.75;5033019;28;20199;-70
2022/01/31 04:31:51;;;;;;;11.00;2.47;;;;;;;2.53;64.65;94988.25;5033141;28;20285;-70
2022/01/31 04:34:19;;;;;;;6.85;2.08;;;;;;;2.53;64.65;94992.44;5032795;28;20229;-71
2022/01/31 04:36:46;;;;;;;5.63;2.00;;;;;;;2.48;64.81;94979.91;5032447;28;20223;-71
2022/01/31 04:39:17;;;;;;;8.10;2.17;;;;;;;2.31;65.39;94987.50;5032331;28;20199;-71
2022/01/31 04:41:44;;;;;;;10.93;2.10;;;;;;;2.28;65.89;94982.50;5032669;28;20743;-70
2022/01/31 04:44:11;;;;;;;10.50;1.83;;;;;;;2.21;66.99;94987.56;5032859;28;20372;-71
2022/01/31 04:46:39;;;;;;;7.73;2.10;;;;;;;2.04;67.88;94975.88;5032794;28;20199;-70
2022/01/31 04:49:06;;;;;;;8.97;1.80;;;;;;;2.07;67.29;94965.03;5032505;28;20207;-71
2022/01/31 04:51:35;;;;;;;2.60;1.67;;;;;;;2.14;67.31;94969.19;5032106;28;20306;-71
2022/01/31 04:54:02;;;;;;;7.43;2.53;;;;;;;1.97;67.77;94961.72;5032550;28;20666;-70
2022/01/31 04:56:30;;;;;;;2.37;1.87;;;;;;;2.04;67.86;94955.84;5030282;28;20834;-71
2022/01/31 04:58:56;;;;;;;7.00;2.17;;;;;;;1.94;67.92;94954.22;5031923;28;20690;-69
2022/01/31 05:01:23;;;;;;;14.43;2.60;;;;;;;1.86;67.37;94952.53;5031981;28;20329;-69
2022/01/31 05:03:50;;;;;;;7.73;2.17;;;;;;;1.71;67.94;94953.41;5031921;28;20231;-71
2022/01/31 05:06:21;;;;;;;14.73;3.00;;;;;;;1.60;69.07;94947.56;5032073;28;20207;-70
2022/01/31 05:08:49;;;;;;;8.07;2.70;;;;;;;1.84;67.93;94955.06;5032800;28;20539;-71
2022/01/31 05:11:16;;;;;;;7.83;1.80;;;;;;;1.69;68.31;94960.94;5033216;28;20236;-70
2022/01/31 05:13:45;;;;;;;6.47;2.13;;;;;;;1.57;68.70;94957.59;5033078;28;20199;-70
2022/01/31 05:16:12;;;;;;;9.57;2.60;;;;;;;1.48;69.32;94955.09;5032537;28;20210;-69
2022/01/31 05:18:39;;;;;;;7.00;1.87;;;;;;;1.57;69.41;94960.09;5031280;28;20261;-69
2022/01/31 05:21:08;;;;;;;6.37;2.17;;;;;;;1.63;69.20;94955.09;5031170;28;20231;-72
2022/01/31 05:23:35;;;;;;;6.00;2.90;;;;;;;1.49;69.31;94966.75;5030060;28;20288;-69
2022/01/31 05:26:03;;;;;;;5.07;2.20;;;;;;;1.38;70.91;94953.44;5029561;28;20215;-69
2022/01/31 05:28:30;;;;;;;6.33;2.23;;;;;;;1.40;70.49;94961.78;5030666;28;20288;-72
2022/01/31 05:30:57;;;;;;;5.33;2.37;;;;;;;1.45;70.43;94955.94;5030482;28;20315;-69
2022/01/31 05:33:24;;;;;;;8.10;4.40;;;;;;;1.41;70.97;94965.97;5030378;28;20226;-70
2022/01/31 05:35:50;;;;;;;22.57;8.20;;;;;;;1.26;70.91;94965.09;5031047;28;20731;-70
2022/01/31 05:38:17;;;;;;;11.97;4.00;;;;;;;1.25;71.77;94973.44;5032188;28;20202;-70
2022/01/31 05:40:44;;;;;;;5.87;2.60;;;;;;;1.16;71.24;94962.59;5031729;28;20280;-70
2022/01/31 05:43:12;;;;;;;4.17;2.50;;;;;;;1.29;71.63;94975.13;5032019;28;20244;-70
2022/01/31 05:45:39;;;;;;;6.63;2.70;;;;;;;1.42;70.54;94970.97;5031466;28;20227;-69
2022/01/31 05:48:06;;;;;;;3.23;2.20;;;;;;;1.30;70.59;94979.28;5031787;28;20289;-70
2022/01/31 05:50:32;;;;;;;8.40;2.60;;;;;;;1.25;71.05;94983.44;5031884;28;20299;-69
2022/01/31 05:52:59;;;;;;;13.40;3.37;;;;;;;1.35;70.80;94984.31;5031850;28;20288;-71
2022/01/31 05:55:26;;;;;;;5.37;2.90;;;;;;;1.35;71.03;94990.16;5030457;28;20623;-70
2022/01/31 05:57:53;;;;;;;8.57;2.13;;;;;;;1.54;70.45;94980.97;5031322;28;20231;-72
2022/01/31 06:00:22;;;;;;;10.90;2.57;;;;;;;1.44;69.70;94939.25;5031271;28;20211;-71
2022/01/31 06:02:56;;;;;;;4.37;1.97;;;;;;;1.74;68.55;94970.91;5031106;28;20681;-70
2022/01/31 06:05:23;;;;;;;4.33;2.17;;;;;;;1.94;67.13;94964.22;5030822;28;20215;-68
2022/01/31 06:07:50;;;;;;;4.53;2.23;;;;;;;2.32;66.07;94975.81;5031781;28;20206;-68
2022/01/31 06:10:17;;;;;;;9.20;2.43;;;;;;;2.39;65.44;94945.69;5031365;28;21066;-70
2022/01/31 06:12:45;;;;;;;9.13;2.53;;;;;;;2.45;65.86;94964.91;5031778;28;20580;-71
2022/01/31 06:15:11;;;;;;;4.77;1.83;;;;;;;2.69;65.04;94957.28;5031644;28;20203;-73
2022/01/31 06:17:40;;;;;;;3.87;2.13;;;;;;;3.33;62.98;94948.47;5030777;28;20284;-72
2022/01/31 06:20:08;;;;;;;6.53;2.20;;;;;;;4.20;60.43;94960.25;5031310;28;20273;-73
2022/01/31 06:22:34;;;;;;;8.33;2.20;;;;;;;4.90;57.61;94954.38;5030694;28;20732;-71
2022/01/31 06:25:01;;;;;;;2.40;1.70;;;;;;;5.43;55.68;94956.97;5031432;28;20227;-70
2022/01/31 06:27:28;;;;;;;3.63;1.63;;;;;;;6.41;53.28;94956.13;5031521;28;20214;-72
2022/01/31 06:29:54;;;;;;;7.50;2.00;;;;;;;6.59;51.82;94954.09;5031421;28;20199;-71
2022/01/31 06:32:25;;;;;;;2.88;1.60;;;;;;;7.18;50.72;94955.34;5030921;28;20682;-73
2022/01/31 06:34:55;;;;;;;4.05;2.00;;;;;;;7.84;48.42;94952.94;5030910;28;20199;-72
2022/01/31 06:37:23;;;;;;;7.25;2.35;;;;;;;8.59;47.26;94958.63;5035261;28;20207;-71
2022/01/31 06:39:50;;;;;;;9.57;2.15;;;;;;;9.86;44.72;94955.63;5034853;28;20653;-73
2022/01/31 06:42:16;;;;;;;5.47;1.88;;;;;;;10.57;41.65;94948.16;5034953;28;20281;-73
2022/01/31 06:44:43;;;;;;;3.60;1.50;;;;;;;10.71;41.45;94947.66;5034422;28;20254;-70
2022/01/31 06:47:10;;;;;;;5.10;2.28;;;;;;;10.98;41.19;94933.09;5034663;28;20257;-73
2022/01/31 06:49:37;;;;;;;3.70;2.28;;;;;;;10.53;41.61;94931.34;5034916;28;20230;-72
2022/01/31 06:52:06;;;;;;;7.80;2.58;;;;;;;9.65;42.35;94928.41;5034196;28;20643;-69
2022/01/31 06:54:33;;;;;;;4.60;2.58;;;;;;;8.88;44.08;94924.03;5034675;28;20234;-72
2022/01/31 06:57:01;;;;;;;6.07;2.70;;;;;;;9.65;43.04;94919.06;5034291;28;20253;-72
2022/01/31 06:59:28;;;;;;;3.70;2.50;;;;;;;10.26;41.82;94911.16;5034508;28;20207;-69
2022/01/31 07:01:54;;;;;;;8.88;5.05;;;;;;;10.73;40.70;94905.22;5034526;28;20242;-70
2022/01/31 07:04:21;;;;;;;11.63;5.60;;;;;;;12.01;37.66;94895.13;5034563;28;20222;-69
2022/01/31 07:06:48;;;;;;;4.30;2.58;;;;;;;13.05;36.13;94893.13;5034266;28;20296;-70
2022/01/31 07:09:16;;;;;;;5.25;3.78;;;;;;;12.85;36.63;94884.66;5034412;28;20195;-69
2022/01/31 07:11:43;;;;;;;5.82;2.28;;;;;;;11.58;38.45;94880.75;5034332;28;20332;-71
2022/01/31 07:14:29;;;;;;;8.32;2.78;;;;;;;9.87;41.43;94892.13;5034255;28;20199;-68
2022/01/31 07:16:56;;;;;;;4.70;2.17;;;;;;;9.40;42.44;94903.00;5034530;28;20195;-68
2022/01/31 07:19:26;;;;;;;7.72;2.28;;;;;;;9.28;42.30;94911.81;5034498;28;20222;-68
2022/01/31 07:21:53;;;;;;;8.15;2.30;;;;;;;8.99;43.99;94914.38;5034107;28;20207;-69
2022/01/31 07:24:24;;;;;;;4.90;2.45;;;;;;;8.61;45.07;94912.97;5033522;28;20199;-71
2022/01/31 07:26:52;;;;;;;8.30;2.55;;;;;;;9.82;42.17;94910.94;5033843;28;20224;-70
2022/01/31 07:29:19;;;;;;;3.72;2.25;;;;;;;10.56;40.89;94900.75;5033936;28;20227;-71
2022/01/31 07:31:47;;;;;;;5.63;2.53;;;;;;;10.97;39.55;94889.94;5032832;28;20209;-71
2022/01/31 07:34:17;;;;;;;5.85;2.30;;;;;;;11.72;37.82;94885.28;5033967;28;20245;-72
2022/01/31 07:36:44;;;;;;;8.77;2.65;;;;;;;12.83;35.34;94876.25;5033359;28;20278;-70
2022/01/31 07:39:11;;;;;;;5.63;2.75;;;;;;;13.90;32.96;94868.63;5034005;28;20242;-71
2022/01/31 07:41:39;;;;;;;7.47;3.00;;;;;;;13.90;33.73;94863.50;5033391;28;20253;-69
2022/01/31 07:44:07;;;;;;;6.65;2.30;;;;;;;14.40;32.95;94863.50;5033838;28;20246;-69
2022/01/31 07:46:34;;;;;;;3.22;2.60;;;;;;;14.77;31.34;94857.34;5032954;28;20240;-68
2022/01/31 07:49:00;;;;;;;7.45;3.58;;;;;;;14.96;30.95;94863.13;5033005;28;20200;-70
2022/01/31 07:51:27;;;;;;;7.75;2.72;;;;;;;13.85;33.48;94865.50;5033100;28;20209;-70
2022/01/31 07:53:54;;;;;;;8.20;2.88;;;;;;;15.03;30.75;94855.13;5033031;28;20211;-70
2022/01/31 07:56:21;;;;;;;9.60;3.85;;;;;;;15.86;29.15;94855.56;5033633;28;20257;-70
2022/01/31 07:58:49;;;;;;;8.55;3.55;;;;;;;16.28;28.15;94847.13;5033664;28;20217;-71
2022/01/31 08:01:16;;;;;;;4.57;2.50;;;;;;;14.85;29.40;94859.47;5033492;28;20799;-70
2022/01/31 08:03:43;;;;;;;10.05;4.43;;;;;;;13.26;32.43;94861.53;5032885;28;20262;-71
2022/01/31 08:06:10;;;;;;;12.55;5.65;;;;;;;13.03;33.55;94849.81;5032745;28;20222;-69
2022/01/31 08:08:37;;;;;;;10.02;3.35;;;;;;;12.94;33.46;94856.16;5033337;28;20284;-74
2022/01/31 08:11:05;;;;;;;13.00;2.72;;;;;;;13.26;32.68;94864.06;5032945;28;20231;-69
2022/01/31 08:13:33;;;;;;;8.52;2.50;;;;;;;13.28;32.16;94867.38;5033139;28;20302;-71
2022/01/31 08:16:09;;;;;;;7.13;2.20;;;;;;;13.33;32.21;94857.78;5033104;28;20201;-70
2022/01/31 08:18:37;;;;;;;4.63;2.30;;;;;;;12.62;33.33;94848.34;5032948;28;20724;-71
2022/01/31 08:21:04;;;;;;;5.50;3.47;;;;;;;12.31;33.98;94839.50;5032969;28;20280;-69
2022/01/31 08:23:31;;;;;;;5.88;3.17;;;;;;;14.21;31.11;94844.91;5032148;28;20234;-72
2022/01/31 08:26:01;;;;;;;6.95;2.45;;;;;;;15.64;29.04;94834.63;5034340;28;20227;-69
2022/01/31 08:28:34;;;;;;;12.35;5.43;;;;;;;15.88;28.32;94834.97;5033078;28;21070;-70
2022/01/31 08:31:10;;;;;;;11.30;2.88;;;;;;;16.43;27.32;94826.59;5032784;28;20191;-69
2022/01/31 08:33:39;;;;;;;4.07;2.83;;;;;;;17.29;25.92;94833.25;5032339;28;20214;-72
2022/01/31 08:36:08;;;;;;;4.32;2.80;;;;;;;18.85;24.77;94821.97;5032926;28;20294;-69
2022/01/31 08:38:38;;;;;;;14.23;3.65;;;;;;;19.99;23.02;94825.81;5032603;28;20284;-70
2022/01/31 08:41:05;;;;;;;5.30;2.95;;;;;;;20.00;22.87;94837.78;5032981;28;20634;-70
2022/01/31 08:43:33;;;;;;;7.07;3.60;;;;;;;20.56;22.53;94830.13;5030663;28;20250;-71
2022/01/31 08:46:02;;;;;;;6.10;2.80;;;;;;;19.93;22.62;94831.41;5030783;28;20261;-70
2022/01/31 08:48:30;;;;;;;4.35;2.55;;;;;;;19.59;23.04;94826.16;5030991;28;20257;-69
2022/01/31 08:50:58;;;;;;;6.18;3.42;;;;;;;19.56;23.35;94823.78;5031483;28;20206;-70
2022/01/31 08:53:25;;;;;;;6.63;3.60;;;;;;;19.89;23.21;94824.84;5031451;28;20719;-71
2022/01/31 08:55:54;;;;;;;7.55;3.47;;;;;;;19.77;22.49;94836.06;5031369;28;20199;-70
2022/01/31 08:58:21;;;;;;;9.65;3.08;;;;;;;18.73;23.37;94830.56;5032490;28;20234;-71
2022/01/31 09:00:51;;;;;;;4.50;2.60;;;;;;;17.28;26.03;94834.19;5032589;28;20203;-70
2022/01/31 09:03:39;;;;;;;5.60;2.78;;;;;;;17.96;25.00;94826.34;5032064;28;20237;-72
2022/01/31 09:06:07;;;;;;;6.60;2.80;;;;;;;17.18;25.26;94825.41;5032331;28;20274;-71
2022/01/31 09:08:34;;;;;;;6.20;2.97;;;;;;;16.53;25.52;94823.41;5031637;28;20285;-71
2022/01/31 09:11:01;;;;;;;6.90;2.67;;;;;;;16.69;25.83;94796.81;5032401;28;20320;-71
2022/01/31 09:13:28;;;;;;;8.00;2.53;;;;;;;15.94;26.19;94801.31;5031994;28;20758;-70
2022/01/31 09:15:54;;;;;;;11.50;2.95;;;;;;;16.39;27.07;94802.03;5031961;28;20203;-70
2022/01/31 09:18:22;;;;;;;8.15;2.45;;;;;;;16.38;26.55;94805.53;5032063;28;21659;-69
2022/01/31 09:20:49;;;;;;;7.07;2.65;;;;;;;16.69;26.17;94802.78;5031523;28;20211;-69
2022/01/31 09:23:16;;;;;;;3.58;1.80;;;;;;;17.22;25.51;94796.03;5032185;28;20284;-71
2022/01/31 09:25:46;;;;;;;4.50;2.47;;;;;;;15.19;27.66;94791.94;5031939;28;20881;-71
2022/01/31 09:28:13;;;;;;;8.68;4.57;;;;;;;13.91;29.19;94801.31;5032634;28;20213;-68
2022/01/31 09:30:41;;;;;;;4.53;2.47;;;;;;;13.84;30.39;94785.47;5031865;28;20638;-72
2022/01/31 09:33:08;;;;;;;9.52;2.20;;;;;;;13.47;29.77;94789.03;5031831;28;20289;-70
2022/01/31 09:35:36;;;;;;;6.43;2.78;;;;;;;11.57;32.24;94793.41;5031126;28;20249;-71
2022/01/31 09:38:04;;;;;;;5.13;2.10;;;;;;;10.82;34.37;94787.13;5031931;28;20203;-70
2022/01/31 09:40:32;;;;;;;8.57;3.00;;;;;;;11.22;35.25;94782.09;5032565;28;20230;-70
2022/01/31 09:43:24;;;;;;;4.63;1.67;;;;;;;11.48;33.50;94781.03;5031484;28;20395;-71
2022/01/31 09:46:03;;;;;;;3.00;2.08;;;;;;;11.22;34.08;94753.28;5024420;28;20207;-69
2022/01/31 09:48:32;;;;;;;5.78;3.20;;;;;;;10.91;34.52;94766.41;5031588;28;20902;-69
2022/01/31 09:51:03;;;;;;;8.02;4.40;;;;;;;11.13;34.62;94754.53;5031963;28;20305;-69
2022/01/31 09:53:32;;;;;;;6.10;2.85;;;;;;;10.84;33.99;94742.97;5031085;28;20215;-70
2022/01/31 09:56:02;;;;;;;4.30;2.47;;;;;;;10.58;36.28;94750.78;5031367;28;20252;-72
2022/01/31 09:58:30;;;;;;;9.35;3.45;;;;;;;9.73;35.88;94747.09;5031226;28;20284;-71
2022/01/31 10:01:08;;;;;;;4.65;2.38;;;;;;;9.78;36.66;94740.16;5031865;28;20209;-71
2022/01/31 10:03:45;;;;;;;5.68;2.13;;;;;;;9.05;37.77;94740.16;5031468;28;20258;-70
2022/01/31 10:06:21;;;;;;;8.93;2.08;;;;;;;8.72;38.30;94746.28;5031554;28;20210;-71
2022/01/31 10:08:48;;;;;;;3.92;2.28;;;;;;;8.43;38.51;94714.25;5030802;28;20267;-71
2022/01/31 10:11:28;;;;;;;18.33;2.55;;;;;;;8.36;40.80;94718.72;5032099;28;20790;-69
2022/01/31 10:16:47;;;;;;;7.35;1.88;;;;;;;7.77;40.07;94708.59;5035410;28;20317;-71
2022/01/31 10:19:15;;;;;;;4.80;3.05;;;;;;;7.67;41.41;94691.22;5034889;28;20299;-69
2022/01/31 10:22:01;;;;;;;4.78;1.60;;;;;;;7.65;40.31;94683.66;5034704;28;20222;-71
2022/01/31 10:24:29;;;;;;;3.60;1.77;;;;;;;7.81;40.99;94682.34;5034874;28;20784;-70
2022/01/31 10:26:56;;;;;;;6.53;2.35;;;;;;;7.90;39.61;94663.56;5034861;28;20733;-70
2022/01/31 10:29:25;;;;;;;9.98;1.95;;;;;;;7.52;39.51;94652.00;5033534;28;20202;-72
2022/01/31 10:31:58;;;;;;;4.40;1.63;;;;;;;7.39;40.04;94670.91;5032519;28;20744;-72
2022/01/31 10:34:26;;;;;;;7.72;2.28;;;;;;;7.66;41.15;94671.84;5034684;28;20312;-73
2022/01/31 10:36:53;;;;;;;6.63;2.60;;;;;;;8.02;39.23;94650.50;5035061;28;20235;-71
2022/01/31 10:53:58;;;;;;;5.72;1.95;;;;;;;8.24;38.96;94601.75;5033905;28;20245;-72
2022/01/31 10:56:37;;;;;;;9.05;2.28;;;;;;;8.16;40.41;94582.59;5034643;28;20210;-71
2022/01/31 10:59:07;;;;;;;6.07;2.40;;;;;;;8.20;38.72;94570.66;5033467;28;20918;-69
2022/01/31 11:01:34;;;;;;;6.15;1.70;;;;;;;8.20;40.74;94585.84;5033978;28;20298;-74
2022/01/31 11:04:04;;;;;;;6.07;2.13;;;;;;;8.43;40.46;94572.47;5033872;28;20258;-71
2022/01/31 11:06:32;;;;;;;5.32;1.90;;;;;;;8.25;39.44;94578.09;5034424;28;20268;-69
2022/01/31 11:09:07;;;;;;;11.80;3.40;;;;;;;8.32;41.93;94574.50;5034673;28;20203;-65
2022/01/31 11:11:37;;;;;;;6.43;2.67;;;;;;;8.32;39.74;94571.97;5034411;28;20254;-71
2022/01/31 11:14:06;;;;;;;2.40;1.70;;;;;;;8.50;39.35;94573.94;5033624;28;20300;-70
2022/01/31 11:16:33;;;;;;;5.97;2.40;;;;;;;8.41;39.69;94574.25;5032990;28;20195;-71
2022/01/31 11:19:06;;;;;;;11.38;4.20;;;;;;;8.36;39.24;94571.03;5032927;28;20295;-71
2022/01/31 11:21:34;;;;;;;8.25;3.25;;;;;;;8.41;40.02;94569.19;5032261;28;20214;-71
2022/01/31 11:24:03;;;;;;;10.13;2.05;;;;;;;8.53;39.49;94568.75;5031820;28;20241;-72
2022/01/31 11:26:39;;;;;;;7.78;3.00;;;;;;;8.57;38.88;94562.72;5032662;28;20284;-71
2022/01/31 11:29:08;;;;;;;2.50;1.77;;;;;;;8.36;40.66;94555.84;5032361;28;20296;-71
2022/01/31 11:31:37;;;;;;;9.90;2.00;;;;;;;8.35;40.08;94544.06;5033385;28;20203;-72
2022/01/31 11:34:05;;;;;;;11.05;2.35;;;;;;;8.24;39.82;94530.88;5033005;28;20243;-72
2022/01/31 11:36:34;;;;;;;4.55;3.08;;;;;;;8.22;39.19;94517.44;5033697;28;20202;-72
2022/01/31 11:39:02;;;;;;;5.20;1.98;;;;;;;8.12;39.92;94527.06;5034358;28;20202;-70
2022/01/31 11:41:29;;;;;;;3.78;2.33;;;;;;;7.80;40.08;94472.44;5034133;28;20373;-70
2022/01/31 11:44:00;;;;;;;5.63;1.63;;;;;;;7.87;39.47;94523.66;5033876;28;20266;-71
2022/01/31 11:46:29;;;;;;;5.68;2.35;;;;;;;7.98;39.48;94522.44;5034126;28;20615;-71
2022/01/31 11:48:56;;;;;;;3.10;2.10;;;;;;;8.04;39.20;94514.66;5033472;28;20231;-70
2022/01/31 11:51:24;;;;;;;4.70;2.33;;;;;;;8.18;38.60;94502.38;5034303;28;20660;-72
2022/01/31 11:53:50;;;;;;;10.35;2.75;;;;;;;8.17;39.51;94494.81;5033305;28;20203;-72
2022/01/31 11:56:20;;;;;;;5.47;3.15;;;;;;;8.18;39.80;94491.41;5034271;28;20202;-70
2022/01/31 11:58:49;;;;;;;5.50;2.42;;;;;;;7.83;39.67;94485.00;5033691;28;20325;-71
2022/01/31 12:01:19;;;;;;;2.50;1.33;;;;;;;7.91;39.02;94477.16;5033094;28;20261;-71